sensor_id;sensor_type;location;lat;lon;timestamp;P1;durP1;ratioP1;P2;durP2;ratioP2
65368;SDS011;51970;53.484;49.488;2023-05-10T00:01:32;9.48;;;2.97;;
65368;SDS011;51970;53.484;49.488;2023-05-10T00:03:59;11.43;;;3.55;;
65368;SDS011;51970;53.484;49.488;2023-05-10T00:06:25;11.32;;;3.08;;
65368;SDS011;51970;53.484;49.488;2023-05-10T00:08:52;12.55;;;2.90;;
65368;SDS011;51970;53.484;49.488;2023-05-10T00:11:18;15.18;;;3.38;;
65368;SDS011;51970;53.484;49.488;2023-05-10T00:13:44;12.25;;;3.22;;
65368;SDS011;51970;53.484;49.488;2023-05-10T00:16:10;16.25;;;3.85;;
65368;SDS011;51970;53.484;49.488;2023-05-10T00:18:38;17.05;;;3.78;;
65368;SDS011;51970;53.484;49.488;2023-05-10T00:21:05;15.65;;;3.35;;
65368;SDS011;51970;53.484;49.488;2023-05-10T00:23:31;14.10;;;3.65;;
65368;SDS011;51970;53.484;49.488;2023-05-10T00:25:57;13.10;;;3.55;;
65368;SDS011;51970;53.484;49.488;2023-05-10T00:28:23;12.88;;;2.85;;
65368;SDS011;51970;53.484;49.488;2023-05-10T00:30:50;17.80;;;2.45;;
65368;SDS011;51970;53.484;49.488;2023-05-10T00:33:16;8.32;;;2.75;;
65368;SDS011;51970;53.484;49.488;2023-05-10T00:35:42;13.32;;;3.22;;
65368;SDS011;51970;53.484;49.488;2023-05-10T00:38:08;16.00;;;3.85;;
65368;SDS011;51970;53.484;49.488;2023-05-10T00:40:35;10.80;;;2.85;;
65368;SDS011;51970;53.484;49.488;2023-05-10T00:43:02;8.65;;;2.85;;
65368;SDS011;51970;53.484;49.488;2023-05-10T00:45:30;11.27;;;3.53;;
65368;SDS011;51970;53.484;49.488;2023-05-10T00:48:01;7.20;;;2.75;;
65368;SDS011;51970;53.484;49.488;2023-05-10T00:50:29;9.30;;;3.00;;
65368;SDS011;51970;53.484;49.488;2023-05-10T00:52:57;13.68;;;3.15;;
65368;SDS011;51970;53.484;49.488;2023-05-10T00:55:25;8.63;;;3.50;;
65368;SDS011;51970;53.484;49.488;2023-05-10T00:57:52;7.43;;;2.45;;
65368;SDS011;51970;53.484;49.488;2023-05-10T01:00:19;10.35;;;2.63;;
65368;SDS011;51970;53.484;49.488;2023-05-10T01:02:45;7.82;;;3.42;;
65368;SDS011;51970;53.484;49.488;2023-05-10T01:05:12;10.43;;;2.88;;
65368;SDS011;51970;53.484;49.488;2023-05-10T01:07:39;10.70;;;3.17;;
65368;SDS011;51970;53.484;49.488;2023-05-10T01:10:06;10.32;;;3.03;;
65368;SDS011;51970;53.484;49.488;2023-05-10T01:12:33;8.13;;;3.13;;
65368;SDS011;51970;53.484;49.488;2023-05-10T01:15:01;9.38;;;3.00;;
65368;SDS011;51970;53.484;49.488;2023-05-10T01:17:28;8.13;;;3.22;;
65368;SDS011;51970;53.484;49.488;2023-05-10T01:19:55;11.90;;;2.78;;
65368;SDS011;51970;53.484;49.488;2023-05-10T01:25:11;10.80;;;3.47;;
65368;SDS011;51970;53.484;49.488;2023-05-10T01:30:56;11.48;;;2.75;;
65368;SDS011;51970;53.484;49.488;2023-05-10T01:36:43;11.75;;;2.40;;
65368;SDS011;51970;53.484;49.488;2023-05-10T01:40:08;9.60;;;2.47;;
65368;SDS011;51970;53.484;49.488;2023-05-10T01:42:14;8.23;;;2.72;;
65368;SDS011;51970;53.484;49.488;2023-05-10T01:44:46;20.92;;;3.30;;
65368;SDS011;51970;53.484;49.488;2023-05-10T01:47:17;12.23;;;3.38;;
65368;SDS011;51970;53.484;49.488;2023-05-10T01:49:50;12.68;;;2.78;;
65368;SDS011;51970;53.484;49.488;2023-05-10T01:52:19;14.15;;;3.42;;
65368;SDS011;51970;53.484;49.488;2023-05-10T01:54:56;16.67;;;3.60;;
65368;SDS011;51970;53.484;49.488;2023-05-10T01:57:35;16.30;;;3.67;;
65368;SDS011;51970;53.484;49.488;2023-05-10T02:00:05;12.48;;;2.85;;
65368;SDS011;51970;53.484;49.488;2023-05-10T02:02:33;13.65;;;2.83;;
65368;SDS011;51970;53.484;49.488;2023-05-10T02:05:05;14.98;;;2.25;;
65368;SDS011;51970;53.484;49.488;2023-05-10T02:07:35;13.88;;;3.20;;
65368;SDS011;51970;53.484;49.488;2023-05-10T02:10:03;15.82;;;3.83;;
65368;SDS011;51970;53.484;49.488;2023-05-10T02:12:35;12.02;;;2.88;;
65368;SDS011;51970;53.484;49.488;2023-05-10T02:15:04;14.25;;;3.05;;
65368;SDS011;51970;53.484;49.488;2023-05-10T02:17:32;11.70;;;2.20;;
65368;SDS011;51970;53.484;49.488;2023-05-10T02:20:01;13.73;;;3.13;;
65368;SDS011;51970;53.484;49.488;2023-05-10T02:22:30;12.88;;;3.85;;
65368;SDS011;51970;53.484;49.488;2023-05-10T02:24:57;12.40;;;2.67;;
65368;SDS011;51970;53.484;49.488;2023-05-10T02:27:25;10.88;;;3.08;;
65368;SDS011;51970;53.484;49.488;2023-05-10T02:29:53;17.58;;;4.13;;
65368;SDS011;51970;53.484;49.488;2023-05-10T02:32:21;11.75;;;3.95;;
65368;SDS011;51970;53.484;49.488;2023-05-10T02:34:48;24.45;;;4.05;;
65368;SDS011;51970;53.484;49.488;2023-05-10T02:37:18;19.33;;;4.50;;
65368;SDS011;51970;53.484;49.488;2023-05-10T02:39:46;15.45;;;4.22;;
65368;SDS011;51970;53.484;49.488;2023-05-10T02:42:16;16.27;;;4.80;;
65368;SDS011;51970;53.484;49.488;2023-05-10T02:44:45;20.08;;;4.80;;
65368;SDS011;51970;53.484;49.488;2023-05-10T02:47:14;21.02;;;4.82;;
65368;SDS011;51970;53.484;49.488;2023-05-10T02:49:40;16.88;;;4.20;;
65368;SDS011;51970;53.484;49.488;2023-05-10T02:52:07;19.25;;;4.45;;
65368;SDS011;51970;53.484;49.488;2023-05-10T02:54:37;13.88;;;4.45;;
65368;SDS011;51970;53.484;49.488;2023-05-10T02:57:09;19.80;;;4.88;;
65368;SDS011;51970;53.484;49.488;2023-05-10T02:59:40;13.45;;;3.78;;
65368;SDS011;51970;53.484;49.488;2023-05-10T03:02:10;15.45;;;4.13;;
65368;SDS011;51970;53.484;49.488;2023-05-10T03:04:38;14.02;;;4.00;;
65368;SDS011;51970;53.484;49.488;2023-05-10T03:07:04;12.95;;;3.88;;
65368;SDS011;51970;53.484;49.488;2023-05-10T03:09:30;17.15;;;4.90;;
65368;SDS011;51970;53.484;49.488;2023-05-10T03:17:30;12.38;;;4.38;;
65368;SDS011;51970;53.484;49.488;2023-05-10T03:20:16;13.40;;;2.90;;
65368;SDS011;51970;53.484;49.488;2023-05-10T03:22:56;18.52;;;4.47;;
65368;SDS011;51970;53.484;49.488;2023-05-10T03:25:31;11.88;;;2.88;;
65368;SDS011;51970;53.484;49.488;2023-05-10T03:27:58;8.80;;;2.70;;
65368;SDS011;51970;53.484;49.488;2023-05-10T03:30:27;12.07;;;3.90;;
65368;SDS011;51970;53.484;49.488;2023-05-10T03:32:55;19.73;;;5.13;;
65368;SDS011;51970;53.484;49.488;2023-05-10T03:35:22;14.85;;;5.57;;
65368;SDS011;51970;53.484;49.488;2023-05-10T03:37:49;16.65;;;4.88;;
65368;SDS011;51970;53.484;49.488;2023-05-10T03:40:15;18.23;;;6.32;;
65368;SDS011;51970;53.484;49.488;2023-05-10T03:42:42;14.05;;;4.65;;
65368;SDS011;51970;53.484;49.488;2023-05-10T03:45:08;13.85;;;5.28;;
65368;SDS011;51970;53.484;49.488;2023-05-10T03:47:35;10.90;;;3.05;;
65368;SDS011;51970;53.484;49.488;2023-05-10T03:50:01;15.23;;;2.95;;
65368;SDS011;51970;53.484;49.488;2023-05-10T03:52:28;13.65;;;3.92;;
65368;SDS011;51970;53.484;49.488;2023-05-10T03:54:54;10.68;;;4.30;;
65368;SDS011;51970;53.484;49.488;2023-05-10T03:57:20;10.43;;;3.47;;
65368;SDS011;51970;53.484;49.488;2023-05-10T03:59:46;13.90;;;3.65;;
65368;SDS011;51970;53.484;49.488;2023-05-10T04:02:13;8.68;;;3.15;;
65368;SDS011;51970;53.484;49.488;2023-05-10T04:04:39;11.57;;;2.83;;
65368;SDS011;51970;53.484;49.488;2023-05-10T04:07:06;10.50;;;2.75;;
65368;SDS011;51970;53.484;49.488;2023-05-10T04:09:33;7.70;;;2.35;;
65368;SDS011;51970;53.484;49.488;2023-05-10T04:11:59;11.02;;;2.45;;
65368;SDS011;51970;53.484;49.488;2023-05-10T04:14:28;10.32;;;2.10;;
65368;SDS011;51970;53.484;49.488;2023-05-10T04:16:54;6.88;;;2.38;;
65368;SDS011;51970;53.484;49.488;2023-05-10T04:19:20;10.38;;;2.33;;
65368;SDS011;51970;53.484;49.488;2023-05-10T04:21:47;9.52;;;2.08;;
65368;SDS011;51970;53.484;49.488;2023-05-10T04:24:13;8.55;;;2.63;;
65368;SDS011;51970;53.484;49.488;2023-05-10T04:26:39;9.27;;;3.13;;
65368;SDS011;51970;53.484;49.488;2023-05-10T04:29:05;10.98;;;2.65;;
65368;SDS011;51970;53.484;49.488;2023-05-10T04:31:31;6.78;;;2.70;;
65368;SDS011;51970;53.484;49.488;2023-05-10T04:33:58;7.55;;;2.30;;
65368;SDS011;51970;53.484;49.488;2023-05-10T04:36:26;7.88;;;2.35;;
65368;SDS011;51970;53.484;49.488;2023-05-10T04:38:56;7.60;;;2.03;;
65368;SDS011;51970;53.484;49.488;2023-05-10T04:41:23;5.63;;;1.98;;
65368;SDS011;51970;53.484;49.488;2023-05-10T04:43:50;4.93;;;2.03;;
65368;SDS011;51970;53.484;49.488;2023-05-10T04:46:16;6.90;;;2.22;;
65368;SDS011;51970;53.484;49.488;2023-05-10T04:49:08;5.82;;;2.03;;
65368;SDS011;51970;53.484;49.488;2023-05-10T04:51:34;7.15;;;2.63;;
65368;SDS011;51970;53.484;49.488;2023-05-10T04:54:00;7.25;;;2.67;;
65368;SDS011;51970;53.484;49.488;2023-05-10T04:56:26;10.32;;;3.10;;
65368;SDS011;51970;53.484;49.488;2023-05-10T04:58:58;7.90;;;3.05;;
65368;SDS011;51970;53.484;49.488;2023-05-10T05:01:24;12.38;;;2.75;;
65368;SDS011;51970;53.484;49.488;2023-05-10T05:03:52;8.13;;;2.03;;
65368;SDS011;51970;53.484;49.488;2023-05-10T05:06:19;18.25;;;3.55;;
65368;SDS011;51970;53.484;49.488;2023-05-10T05:08:51;9.45;;;2.78;;
65368;SDS011;51970;53.484;49.488;2023-05-10T05:11:23;7.85;;;3.47;;
65368;SDS011;51970;53.484;49.488;2023-05-10T05:13:51;7.38;;;1.95;;
65368;SDS011;51970;53.484;49.488;2023-05-10T05:16:19;10.45;;;1.63;;
65368;SDS011;51970;53.484;49.488;2023-05-10T05:18:49;107.57;;;13.23;;
65368;SDS011;51970;53.484;49.488;2023-05-10T05:21:27;4.80;;;1.92;;
65368;SDS011;51970;53.484;49.488;2023-05-10T05:24:13;4.65;;;1.58;;
65368;SDS011;51970;53.484;49.488;2023-05-10T05:26:39;4.60;;;1.73;;
65368;SDS011;51970;53.484;49.488;2023-05-10T05:29:05;8.88;;;2.28;;
65368;SDS011;51970;53.484;49.488;2023-05-10T05:31:48;7.32;;;1.65;;
65368;SDS011;51970;53.484;49.488;2023-05-10T05:34:14;5.10;;;2.00;;
65368;SDS011;51970;53.484;49.488;2023-05-10T05:36:40;6.25;;;2.47;;
65368;SDS011;51970;53.484;49.488;2023-05-10T05:39:08;4.57;;;2.22;;
65368;SDS011;51970;53.484;49.488;2023-05-10T05:41:35;5.47;;;1.67;;
65368;SDS011;51970;53.484;49.488;2023-05-10T05:44:13;10.98;;;2.10;;
65368;SDS011;51970;53.484;49.488;2023-05-10T05:49:28;4.47;;;1.48;;
65368;SDS011;51970;53.484;49.488;2023-05-10T05:52:01;5.60;;;1.80;;
65368;SDS011;51970;53.484;49.488;2023-05-10T05:54:31;5.13;;;1.60;;
65368;SDS011;51970;53.484;49.488;2023-05-10T05:57:17;7.25;;;1.15;;
65368;SDS011;51970;53.484;49.488;2023-05-10T05:59:53;5.38;;;1.73;;
65368;SDS011;51970;53.484;49.488;2023-05-10T06:02:24;3.08;;;1.02;;
65368;SDS011;51970;53.484;49.488;2023-05-10T06:04:51;3.50;;;1.23;;
65368;SDS011;51970;53.484;49.488;2023-05-10T06:07:20;3.63;;;1.60;;
65368;SDS011;51970;53.484;49.488;2023-05-10T06:09:50;7.38;;;1.50;;
65368;SDS011;51970;53.484;49.488;2023-05-10T06:12:19;7.65;;;1.58;;
65368;SDS011;51970;53.484;49.488;2023-05-10T06:14:48;3.90;;;1.55;;
65368;SDS011;51970;53.484;49.488;2023-05-10T06:17:25;5.70;;;2.28;;
65368;SDS011;51970;53.484;49.488;2023-05-10T06:20:54;3.33;;;1.48;;
65368;SDS011;51970;53.484;49.488;2023-05-10T06:23:27;4.72;;;2.33;;
65368;SDS011;51970;53.484;49.488;2023-05-10T06:25:56;4.10;;;1.40;;
65368;SDS011;51970;53.484;49.488;2023-05-10T06:28:25;4.82;;;2.13;;
65368;SDS011;51970;53.484;49.488;2023-05-10T06:31:16;4.28;;;1.55;;
65368;SDS011;51970;53.484;49.488;2023-05-10T06:33:47;6.43;;;1.77;;
65368;SDS011;51970;53.484;49.488;2023-05-10T06:36:33;7.85;;;1.60;;
65368;SDS011;51970;53.484;49.488;2023-05-10T06:39:26;5.82;;;1.88;;
65368;SDS011;51970;53.484;49.488;2023-05-10T06:41:58;11.43;;;1.95;;
65368;SDS011;51970;53.484;49.488;2023-05-10T06:44:34;3.97;;;1.63;;
65368;SDS011;51970;53.484;49.488;2023-05-10T06:47:11;3.92;;;2.03;;
65368;SDS011;51970;53.484;49.488;2023-05-10T06:49:39;3.67;;;1.42;;
65368;SDS011;51970;53.484;49.488;2023-05-10T06:52:29;4.60;;;2.00;;
65368;SDS011;51970;53.484;49.488;2023-05-10T06:54:55;4.53;;;1.60;;
65368;SDS011;51970;53.484;49.488;2023-05-10T06:57:23;4.30;;;1.30;;
65368;SDS011;51970;53.484;49.488;2023-05-10T07:00:01;6.30;;;1.27;;
65368;SDS011;51970;53.484;49.488;2023-05-10T07:02:32;12.80;;;1.50;;
65368;SDS011;51970;53.484;49.488;2023-05-10T07:04:58;4.15;;;1.30;;
65368;SDS011;51970;53.484;49.488;2023-05-10T07:07:25;7.63;;;2.20;;
65368;SDS011;51970;53.484;49.488;2023-05-10T07:09:53;7.28;;;1.83;;
65368;SDS011;51970;53.484;49.488;2023-05-10T07:12:22;5.55;;;1.23;;
65368;SDS011;51970;53.484;49.488;2023-05-10T07:14:49;6.35;;;0.98;;
65368;SDS011;51970;53.484;49.488;2023-05-10T07:17:18;4.30;;;1.88;;
65368;SDS011;51970;53.484;49.488;2023-05-10T07:19:59;6.38;;;2.05;;
65368;SDS011;51970;53.484;49.488;2023-05-10T07:22:25;8.00;;;1.60;;
65368;SDS011;51970;53.484;49.488;2023-05-10T07:24:53;3.53;;;1.30;;
65368;SDS011;51970;53.484;49.488;2023-05-10T07:27:20;5.00;;;2.35;;
65368;SDS011;51970;53.484;49.488;2023-05-10T07:29:47;6.50;;;1.95;;
65368;SDS011;51970;53.484;49.488;2023-05-10T07:32:13;6.00;;;2.38;;
65368;SDS011;51970;53.484;49.488;2023-05-10T07:34:43;5.95;;;2.10;;
65368;SDS011;51970;53.484;49.488;2023-05-10T07:37:14;9.65;;;1.25;;
65368;SDS011;51970;53.484;49.488;2023-05-10T07:39:41;4.28;;;1.45;;
65368;SDS011;51970;53.484;49.488;2023-05-10T07:42:07;6.25;;;3.00;;
65368;SDS011;51970;53.484;49.488;2023-05-10T07:44:53;4.43;;;1.63;;
65368;SDS011;51970;53.484;49.488;2023-05-10T07:47:19;6.55;;;1.48;;
65368;SDS011;51970;53.484;49.488;2023-05-10T07:49:45;4.60;;;1.70;;
65368;SDS011;51970;53.484;49.488;2023-05-10T07:52:16;4.75;;;1.05;;
65368;SDS011;51970;53.484;49.488;2023-05-10T07:55:25;4.40;;;1.40;;
65368;SDS011;51970;53.484;49.488;2023-05-10T07:57:53;5.03;;;2.00;;
65368;SDS011;51970;53.484;49.488;2023-05-10T08:00:29;9.60;;;1.90;;
65368;SDS011;51970;53.484;49.488;2023-05-10T08:02:56;9.55;;;1.98;;
65368;SDS011;51970;53.484;49.488;2023-05-10T08:05:24;4.82;;;1.20;;
65368;SDS011;51970;53.484;49.488;2023-05-10T08:07:52;5.72;;;2.03;;
65368;SDS011;51970;53.484;49.488;2023-05-10T08:10:19;5.45;;;1.75;;
65368;SDS011;51970;53.484;49.488;2023-05-10T08:12:48;5.68;;;2.15;;
65368;SDS011;51970;53.484;49.488;2023-05-10T08:15:26;4.82;;;1.58;;
65368;SDS011;51970;53.484;49.488;2023-05-10T08:17:52;8.73;;;2.40;;
65368;SDS011;51970;53.484;49.488;2023-05-10T08:20:19;7.97;;;1.88;;
65368;SDS011;51970;53.484;49.488;2023-05-10T08:22:46;7.70;;;2.45;;
65368;SDS011;51970;53.484;49.488;2023-05-10T08:25:12;9.88;;;2.55;;
65368;SDS011;51970;53.484;49.488;2023-05-10T08:27:38;4.97;;;2.13;;
65368;SDS011;51970;53.484;49.488;2023-05-10T08:30:05;5.28;;;1.60;;
65368;SDS011;51970;53.484;49.488;2023-05-10T08:32:39;5.90;;;2.13;;
65368;SDS011;51970;53.484;49.488;2023-05-10T08:35:05;7.30;;;2.00;;
65368;SDS011;51970;53.484;49.488;2023-05-10T08:37:31;4.85;;;2.05;;
65368;SDS011;51970;53.484;49.488;2023-05-10T08:39:58;7.60;;;2.45;;
65368;SDS011;51970;53.484;49.488;2023-05-10T08:42:25;7.47;;;2.65;;
65368;SDS011;51970;53.484;49.488;2023-05-10T08:44:55;6.45;;;2.45;;
65368;SDS011;51970;53.484;49.488;2023-05-10T08:47:23;6.43;;;1.70;;
65368;SDS011;51970;53.484;49.488;2023-05-10T08:49:51;7.68;;;1.63;;
65368;SDS011;51970;53.484;49.488;2023-05-10T08:52:20;12.23;;;2.40;;
65368;SDS011;51970;53.484;49.488;2023-05-10T08:57:16;7.22;;;2.00;;
65368;SDS011;51970;53.484;49.488;2023-05-10T08:59:44;6.72;;;3.83;;
65368;SDS011;51970;53.484;49.488;2023-05-10T09:02:11;5.95;;;2.25;;
65368;SDS011;51970;53.484;49.488;2023-05-10T09:04:38;9.40;;;3.30;;
65368;SDS011;51970;53.484;49.488;2023-05-10T09:07:06;6.88;;;3.40;;
65368;SDS011;51970;53.484;49.488;2023-05-10T09:09:41;13.75;;;3.05;;
65368;SDS011;51970;53.484;49.488;2023-05-10T09:12:09;7.15;;;2.65;;
65368;SDS011;51970;53.484;49.488;2023-05-10T09:14:37;10.18;;;3.00;;
65368;SDS011;51970;53.484;49.488;2023-05-10T09:17:04;6.85;;;2.60;;
65368;SDS011;51970;53.484;49.488;2023-05-10T09:19:31;9.30;;;3.25;;
65368;SDS011;51970;53.484;49.488;2023-05-10T09:21:58;8.50;;;2.97;;
65368;SDS011;51970;53.484;49.488;2023-05-10T09:24:26;9.32;;;4.78;;
65368;SDS011;51970;53.484;49.488;2023-05-10T09:26:53;13.20;;;6.25;;
65368;SDS011;51970;53.484;49.488;2023-05-10T09:29:25;12.63;;;4.93;;
65368;SDS011;51970;53.484;49.488;2023-05-10T09:31:52;10.88;;;4.22;;
65368;SDS011;51970;53.484;49.488;2023-05-10T09:34:29;11.35;;;4.85;;
65368;SDS011;51970;53.484;49.488;2023-05-10T09:36:57;10.40;;;3.80;;
65368;SDS011;51970;53.484;49.488;2023-05-10T09:39:34;9.82;;;4.55;;
65368;SDS011;51970;53.484;49.488;2023-05-10T09:42:05;13.63;;;4.63;;
65368;SDS011;51970;53.484;49.488;2023-05-10T09:44:36;14.43;;;4.82;;
65368;SDS011;51970;53.484;49.488;2023-05-10T09:47:05;11.50;;;4.90;;
65368;SDS011;51970;53.484;49.488;2023-05-10T09:49:31;11.80;;;4.50;;
65368;SDS011;51970;53.484;49.488;2023-05-10T09:52:02;13.60;;;5.80;;
65368;SDS011;51970;53.484;49.488;2023-05-10T09:54:30;9.57;;;5.28;;
65368;SDS011;51970;53.484;49.488;2023-05-10T09:56:57;10.55;;;4.43;;
65368;SDS011;51970;53.484;49.488;2023-05-10T09:59:27;8.40;;;4.22;;
65368;SDS011;51970;53.484;49.488;2023-05-10T10:01:57;10.88;;;4.90;;
65368;SDS011;51970;53.484;49.488;2023-05-10T10:04:25;9.93;;;5.60;;
65368;SDS011;51970;53.484;49.488;2023-05-10T10:06:58;9.00;;;4.60;;
65368;SDS011;51970;53.484;49.488;2023-05-10T10:09:26;10.85;;;4.28;;
65368;SDS011;51970;53.484;49.488;2023-05-10T10:11:52;15.10;;;4.68;;
65368;SDS011;51970;53.484;49.488;2023-05-10T10:14:19;9.40;;;4.18;;
65368;SDS011;51970;53.484;49.488;2023-05-10T10:16:47;12.48;;;3.80;;
65368;SDS011;51970;53.484;49.488;2023-05-10T10:19:14;13.63;;;3.85;;
65368;SDS011;51970;53.484;49.488;2023-05-10T10:21:44;6.15;;;2.15;;
65368;SDS011;51970;53.484;49.488;2023-05-10T10:24:11;10.68;;;5.05;;
65368;SDS011;51970;53.484;49.488;2023-05-10T10:26:45;14.23;;;4.22;;
65368;SDS011;51970;53.484;49.488;2023-05-10T10:34:53;12.45;;;5.00;;
65368;SDS011;51970;53.484;49.488;2023-05-10T10:37:21;8.70;;;4.18;;
65368;SDS011;51970;53.484;49.488;2023-05-10T10:40:26;12.32;;;4.78;;
65368;SDS011;51970;53.484;49.488;2023-05-10T10:43:45;14.82;;;5.13;;
65368;SDS011;51970;53.484;49.488;2023-05-10T10:49:09;10.45;;;4.88;;
65368;SDS011;51970;53.484;49.488;2023-05-10T10:51:40;12.10;;;4.25;;
65368;SDS011;51970;53.484;49.488;2023-05-10T10:54:31;9.45;;;4.78;;
65368;SDS011;51970;53.484;49.488;2023-05-10T10:57:11;11.68;;;5.22;;
65368;SDS011;51970;53.484;49.488;2023-05-10T10:59:48;11.48;;;4.78;;
65368;SDS011;51970;53.484;49.488;2023-05-10T11:08:28;9.25;;;5.32;;
65368;SDS011;51970;53.484;49.488;2023-05-10T11:11:35;13.05;;;5.72;;
65368;SDS011;51970;53.484;49.488;2023-05-10T11:14:28;9.07;;;4.93;;
65368;SDS011;51970;53.484;49.488;2023-05-10T11:17:39;15.00;;;6.47;;
65368;SDS011;51970;53.484;49.488;2023-05-10T11:20:21;13.52;;;5.15;;
65368;SDS011;51970;53.484;49.488;2023-05-10T11:22:53;11.25;;;5.22;;
65368;SDS011;51970;53.484;49.488;2023-05-10T11:25:26;16.88;;;5.35;;
65368;SDS011;51970;53.484;49.488;2023-05-10T11:27:54;12.07;;;5.95;;
65368;SDS011;51970;53.484;49.488;2023-05-10T11:30:22;11.00;;;5.50;;
65368;SDS011;51970;53.484;49.488;2023-05-10T11:32:48;13.30;;;5.60;;
65368;SDS011;51970;53.484;49.488;2023-05-10T11:35:16;18.38;;;5.22;;
65368;SDS011;51970;53.484;49.488;2023-05-10T11:37:42;14.80;;;4.90;;
65368;SDS011;51970;53.484;49.488;2023-05-10T11:40:09;14.18;;;5.80;;
65368;SDS011;51970;53.484;49.488;2023-05-10T11:42:37;11.30;;;4.50;;
65368;SDS011;51970;53.484;49.488;2023-05-10T11:45:04;10.55;;;4.80;;
65368;SDS011;51970;53.484;49.488;2023-05-10T11:47:31;10.23;;;4.65;;
65368;SDS011;51970;53.484;49.488;2023-05-10T11:49:58;13.27;;;5.78;;
65368;SDS011;51970;53.484;49.488;2023-05-10T11:52:38;10.15;;;4.90;;
65368;SDS011;51970;53.484;49.488;2023-05-10T11:55:04;10.70;;;4.55;;
65368;SDS011;51970;53.484;49.488;2023-05-10T11:57:31;9.30;;;5.22;;
65368;SDS011;51970;53.484;49.488;2023-05-10T11:59:59;10.18;;;5.15;;
65368;SDS011;51970;53.484;49.488;2023-05-10T12:02:25;12.00;;;6.82;;
65368;SDS011;51970;53.484;49.488;2023-05-10T12:04:52;13.82;;;5.45;;
65368;SDS011;51970;53.484;49.488;2023-05-10T12:07:20;13.52;;;5.38;;
65368;SDS011;51970;53.484;49.488;2023-05-10T12:10:07;14.77;;;4.93;;
65368;SDS011;51970;53.484;49.488;2023-05-10T12:12:38;14.93;;;6.20;;
65368;SDS011;51970;53.484;49.488;2023-05-10T12:15:23;10.18;;;4.85;;
65368;SDS011;51970;53.484;49.488;2023-05-10T12:17:50;12.40;;;6.05;;
65368;SDS011;51970;53.484;49.488;2023-05-10T12:20:20;14.52;;;6.07;;
65368;SDS011;51970;53.484;49.488;2023-05-10T12:22:54;11.27;;;5.93;;
65368;SDS011;51970;53.484;49.488;2023-05-10T12:25:24;13.57;;;4.60;;
65368;SDS011;51970;53.484;49.488;2023-05-10T12:27:58;12.40;;;5.28;;
65368;SDS011;51970;53.484;49.488;2023-05-10T12:30:31;16.15;;;5.82;;
65368;SDS011;51970;53.484;49.488;2023-05-10T12:33:06;14.50;;;5.40;;
65368;SDS011;51970;53.484;49.488;2023-05-10T12:35:46;11.18;;;5.45;;
65368;SDS011;51970;53.484;49.488;2023-05-10T12:38:36;10.63;;;5.53;;
65368;SDS011;51970;53.484;49.488;2023-05-10T12:41:15;13.35;;;5.80;;
65368;SDS011;51970;53.484;49.488;2023-05-10T12:43:43;12.57;;;5.30;;
65368;SDS011;51970;53.484;49.488;2023-05-10T12:46:11;10.50;;;6.95;;
65368;SDS011;51970;53.484;49.488;2023-05-10T12:48:42;9.93;;;4.78;;
65368;SDS011;51970;53.484;49.488;2023-05-10T12:51:11;11.35;;;5.70;;
65368;SDS011;51970;53.484;49.488;2023-05-10T12:53:40;9.40;;;5.70;;
65368;SDS011;51970;53.484;49.488;2023-05-10T12:56:07;13.52;;;6.05;;
65368;SDS011;51970;53.484;49.488;2023-05-10T12:58:37;11.98;;;5.40;;
65368;SDS011;51970;53.484;49.488;2023-05-10T13:01:23;10.38;;;5.63;;
65368;SDS011;51970;53.484;49.488;2023-05-10T13:03:51;10.02;;;4.25;;
65368;SDS011;51970;53.484;49.488;2023-05-10T13:06:23;10.40;;;5.18;;
65368;SDS011;51970;53.484;49.488;2023-05-10T13:08:49;12.90;;;4.97;;
65368;SDS011;51970;53.484;49.488;2023-05-10T13:11:15;10.85;;;5.22;;
65368;SDS011;51970;53.484;49.488;2023-05-10T13:14:26;10.30;;;4.40;;
65368;SDS011;51970;53.484;49.488;2023-05-10T13:16:54;9.77;;;4.78;;
65368;SDS011;51970;53.484;49.488;2023-05-10T13:19:34;9.80;;;4.88;;
65368;SDS011;51970;53.484;49.488;2023-05-10T13:22:07;10.25;;;5.25;;
65368;SDS011;51970;53.484;49.488;2023-05-10T13:24:33;10.10;;;5.47;;
65368;SDS011;51970;53.484;49.488;2023-05-10T13:27:15;12.88;;;4.93;;
65368;SDS011;51970;53.484;49.488;2023-05-10T13:29:47;12.48;;;6.32;;
65368;SDS011;51970;53.484;49.488;2023-05-10T13:32:15;14.82;;;6.47;;
65368;SDS011;51970;53.484;49.488;2023-05-10T13:35:56;14.35;;;6.43;;
65368;SDS011;51970;53.484;49.488;2023-05-10T13:38:30;11.60;;;5.57;;
65368;SDS011;51970;53.484;49.488;2023-05-10T13:41:01;12.82;;;5.53;;
65368;SDS011;51970;53.484;49.488;2023-05-10T13:43:29;10.80;;;4.72;;
65368;SDS011;51970;53.484;49.488;2023-05-10T13:46:02;9.70;;;5.03;;
65368;SDS011;51970;53.484;49.488;2023-05-10T13:48:50;11.32;;;4.95;;
65368;SDS011;51970;53.484;49.488;2023-05-10T13:51:19;8.98;;;4.82;;
65368;SDS011;51970;53.484;49.488;2023-05-10T13:53:48;12.95;;;4.43;;
65368;SDS011;51970;53.484;49.488;2023-05-10T13:56:21;16.38;;;4.78;;
65368;SDS011;51970;53.484;49.488;2023-05-10T13:58:48;15.73;;;5.07;;
65368;SDS011;51970;53.484;49.488;2023-05-10T14:01:15;9.90;;;4.90;;
65368;SDS011;51970;53.484;49.488;2023-05-10T14:03:45;8.73;;;4.30;;
65368;SDS011;51970;53.484;49.488;2023-05-10T14:06:13;13.63;;;5.18;;
65368;SDS011;51970;53.484;49.488;2023-05-10T14:08:39;10.63;;;5.10;;
65368;SDS011;51970;53.484;49.488;2023-05-10T14:11:05;12.93;;;5.72;;
65368;SDS011;51970;53.484;49.488;2023-05-10T14:13:33;9.00;;;5.03;;
65368;SDS011;51970;53.484;49.488;2023-05-10T14:16:01;13.07;;;4.63;;
65368;SDS011;51970;53.484;49.488;2023-05-10T14:18:34;16.52;;;5.25;;
65368;SDS011;51970;53.484;49.488;2023-05-10T14:21:06;13.07;;;5.20;;
65368;SDS011;51970;53.484;49.488;2023-05-10T14:23:33;10.80;;;5.15;;
65368;SDS011;51970;53.484;49.488;2023-05-10T14:25:59;17.52;;;4.68;;
65368;SDS011;51970;53.484;49.488;2023-05-10T14:28:28;10.45;;;5.63;;
65368;SDS011;51970;53.484;49.488;2023-05-10T14:30:55;8.77;;;3.83;;
65368;SDS011;51970;53.484;49.488;2023-05-10T14:33:21;14.75;;;6.00;;
65368;SDS011;51970;53.484;49.488;2023-05-10T14:35:56;12.32;;;4.40;;
65368;SDS011;51970;53.484;49.488;2023-05-10T14:38:23;11.75;;;5.10;;
65368;SDS011;51970;53.484;49.488;2023-05-10T14:41:01;11.32;;;5.65;;
65368;SDS011;51970;53.484;49.488;2023-05-10T14:43:29;11.85;;;4.75;;
65368;SDS011;51970;53.484;49.488;2023-05-10T14:46:17;9.85;;;5.00;;
65368;SDS011;51970;53.484;49.488;2023-05-10T14:49:09;10.07;;;5.13;;
65368;SDS011;51970;53.484;49.488;2023-05-10T14:52:01;12.50;;;4.70;;
65368;SDS011;51970;53.484;49.488;2023-05-10T14:54:34;11.63;;;4.57;;
65368;SDS011;51970;53.484;49.488;2023-05-10T14:57:01;12.25;;;4.82;;
65368;SDS011;51970;53.484;49.488;2023-05-10T14:59:29;10.57;;;5.22;;
65368;SDS011;51970;53.484;49.488;2023-05-10T15:01:58;8.90;;;4.20;;
65368;SDS011;51970;53.484;49.488;2023-05-10T15:04:25;10.07;;;4.72;;
65368;SDS011;51970;53.484;49.488;2023-05-10T15:06:54;10.63;;;4.57;;
65368;SDS011;51970;53.484;49.488;2023-05-10T15:09:26;16.23;;;5.20;;
65368;SDS011;51970;53.484;49.488;2023-05-10T15:12:12;11.88;;;4.13;;
65368;SDS011;51970;53.484;49.488;2023-05-10T15:14:39;9.52;;;4.65;;
65368;SDS011;51970;53.484;49.488;2023-05-10T15:17:07;8.23;;;4.53;;
65368;SDS011;51970;53.484;49.488;2023-05-10T15:19:35;12.57;;;5.25;;
65368;SDS011;51970;53.484;49.488;2023-05-10T15:22:06;13.70;;;4.95;;
65368;SDS011;51970;53.484;49.488;2023-05-10T15:24:38;11.63;;;4.55;;